To NAV CANADA Home Page Login to a new session Search on AWWS site Disclaimer Vers la page française équivalente Tips FAQ What's new on the site To the Forecasts and Observations / NOTAM section To "File a Flight Plan" website Publications and other links Update of the User's profile FIC Telephone Numbers My Weather Data Folder Route Weather Data Regional Weather Data Local Weather Data To the Forecasts and Observations / NOTAM section
Request Generated 06/25/2018 at 05:44:25 UTC . Weather information available at that time is displayed.

METAR/TAF

TORONTO/BILLY BISHOP TORONTO CITY AIRPORT/ON    (show WxCam)

METAR CYTZ 250500Z AUTO 35007KT 9SM BKN055 BKN076 OVC088 17/13 A3005
RMK SLP178 DENSITY ALT 400FT=
METAR CYTZ 250400Z AUTO 35008KT 300V010 9SM BKN075 BKN093 18/14 A3003
RMK PRESRR SLP170 DENSITY ALT 500FT=
METAR CYTZ 250300Z AUTO 33008KT 9SM BKN075 OVC100 18/14 A3000 RMK
SLP160 DENSITY ALT 600FT=

TAF AMD CYTZ 250221Z 2502/2602 33008G18KT P6SM BKN090 TEMPO 2502/2507
SCT090
FM250700 33008KT P6SM SCT050
FM251200 35010KT P6SM SKC
BECMG 2516/2518 04010KT
BECMG 2520/2522 VRB03KT
RMK FCST BASED ON AUTO OBS. NXT FCST BY 250800Z=
Your time UTC time
Weather data provided by Environment Canada and NAV CANADA